createdAt,value
2018-07-07T00:02:29.032Z,78.60
2018-07-07T00:06:31.901Z,78.90
2018-07-07T00:10:34.723Z,78.30
2018-07-07T00:14:37.720Z,77.40
2018-07-07T00:18:40.586Z,77.10
2018-07-07T00:22:43.696Z,76.90
2018-07-07T00:26:46.627Z,77.70
2018-07-07T00:30:49.420Z,75.10
2018-07-07T00:34:52.242Z,81.70
2018-07-07T00:38:55.118Z,79.40
2018-07-07T00:42:58.112Z,81.20
2018-07-07T00:47:01.025Z,80.60
2018-07-07T00:51:03.908Z,81.10
2018-07-07T00:55:06.814Z,79.50
2018-07-07T00:59:09.714Z,79.70
2018-07-07T01:03:12.613Z,80.00
2018-07-07T01:07:15.490Z,80.10
2018-07-07T01:11:18.394Z,82.30
2018-07-07T01:15:21.214Z,84.70
2018-07-07T01:19:24.192Z,85.80
2018-07-07T01:23:26.977Z,82.80
2018-07-07T01:27:29.767Z,86.10
2018-07-07T01:31:32.581Z,83.40
2018-07-07T01:35:35.384Z,85.30
2018-07-07T01:39:38.170Z,85.70
2018-07-07T01:43:41.018Z,84.70
2018-07-07T01:47:43.856Z,84.70
2018-07-07T01:51:46.656Z,85.90
2018-07-07T01:55:49.570Z,86.90
2018-07-07T01:59:52.441Z,85.70
2018-07-07T02:03:55.303Z,87.10
2018-07-07T02:07:58.188Z,86.90
2018-07-07T02:12:01.039Z,88.10
2018-07-07T02:16:03.967Z,87.30
2018-07-07T02:20:06.838Z,88.00
2018-07-07T02:24:09.723Z,87.80
2018-07-07T02:28:12.637Z,90.20
2018-07-07T02:36:18.405Z,86.70
2018-07-07T02:40:21.317Z,87.00
2018-07-07T02:44:24.189Z,87.10
2018-07-07T02:48:27.043Z,87.00
2018-07-07T02:52:29.983Z,88.20
2018-07-07T02:56:32.793Z,90.00
2018-07-07T03:00:35.574Z,89.10
2018-07-07T03:04:38.352Z,90.00
2018-07-07T03:08:41.466Z,90.70
2018-07-07T03:12:44.309Z,89.90
2018-07-07T03:16:47.173Z,89.80
2018-07-07T03:20:49.989Z,89.80
2018-07-07T03:24:52.834Z,90.40
2018-07-07T03:28:55.773Z,90.90
2018-07-07T03:32:58.721Z,90.20
2018-07-07T03:37:01.576Z,91.10
2018-07-07T03:41:04.473Z,89.90
2018-07-07T03:45:07.363Z,91.10
2018-07-07T03:49:10.193Z,91.00
2018-07-07T03:53:13.251Z,91.00
2018-07-07T03:57:16.154Z,91.70
2018-07-07T04:01:18.956Z,91.50
2018-07-07T04:05:22.151Z,91.60
2018-07-07T04:13:27.720Z,92.50
2018-07-07T04:17:30.539Z,91.80
2018-07-07T04:21:33.406Z,91.80
2018-07-07T04:25:36.232Z,91.70
2018-07-07T04:29:39.177Z,92.40
2018-07-07T04:33:42.072Z,92.40
2018-07-07T04:37:44.961Z,93.10
2018-07-07T04:41:47.791Z,93.50
2018-07-07T04:45:50.677Z,93.40
2018-07-07T04:49:53.507Z,93.70
2018-07-07T04:53:56.362Z,94.00
2018-07-07T04:57:59.142Z,93.90
2018-07-07T05:02:02.076Z,93.20
2018-07-07T05:06:04.985Z,93.00
2018-07-07T05:10:07.786Z,93.40
2018-07-07T05:14:10.691Z,93.30
2018-07-07T05:18:13.558Z,92.90
2018-07-07T05:22:16.514Z,94.10
2018-07-07T05:26:19.368Z,94.50
2018-07-07T05:30:22.281Z,94.20
2018-07-07T05:34:25.121Z,94.80
2018-07-07T05:38:27.912Z,95.20
2018-07-07T05:42:31.301Z,96.00
2018-07-07T05:46:34.253Z,97.20
2018-07-07T05:50:37.240Z,96.90
2018-07-07T05:54:40.126Z,96.60
2018-07-07T05:58:43.020Z,96.00
2018-07-07T06:02:45.822Z,96.50
2018-07-07T06:06:48.671Z,96.40
2018-07-07T06:10:51.528Z,96.10
2018-07-07T06:14:54.917Z,96.30
2018-07-07T06:18:58.055Z,96.10
2018-07-07T06:23:00.944Z,95.60
2018-07-07T06:27:04.053Z,94.90
2018-07-07T06:31:07.135Z,94.90
2018-07-07T06:35:10.021Z,95.30
2018-07-07T06:39:13.862Z,95.00
2018-07-07T06:43:16.726Z,94.60
2018-07-07T06:47:19.606Z,94.10
2018-07-07T06:51:22.581Z,94.30
2018-07-07T06:55:25.533Z,94.00
2018-07-07T06:59:28.300Z,93.70
2018-07-07T07:03:31.091Z,93.00
2018-07-07T07:07:34.156Z,93.20
2018-07-07T07:15:39.835Z,92.50
2018-07-07T07:19:42.775Z,91.90
2018-07-07T07:23:45.791Z,91.40
2018-07-07T07:27:48.723Z,92.40
2018-07-07T07:31:58.145Z,91.90
2018-07-07T07:36:05.504Z,91.50
2018-07-07T07:40:08.505Z,92.10
2018-07-07T07:44:11.436Z,91.00
2018-07-07T07:48:15.121Z,91.50
2018-07-07T07:52:18.164Z,90.20
2018-07-07T07:56:21.020Z,89.10
2018-07-07T08:00:23.861Z,87.20
2018-07-07T08:04:26.713Z,86.20
2018-07-07T08:08:29.487Z,87.20
2018-07-07T08:12:32.280Z,88.20
2018-07-07T08:16:35.218Z,85.20
2018-07-07T08:20:40.368Z,83.80
2018-07-07T08:24:44.896Z,82.40
2018-07-07T08:28:49.791Z,82.80
2018-07-07T08:32:52.604Z,81.40
2018-07-07T08:36:55.408Z,83.30
2018-07-07T08:40:58.449Z,79.40
2018-07-07T08:45:01.328Z,79.10
2018-07-07T08:49:04.278Z,80.30
2018-07-07T08:53:07.108Z,78.40
2018-07-07T09:01:12.686Z,75.30
2018-07-07T09:05:15.464Z,74.00
2018-07-07T09:09:18.228Z,73.80
2018-07-07T09:13:21.089Z,70.30
2018-07-07T09:17:23.899Z,73.50
2018-07-07T09:21:26.710Z,74.20
2018-07-07T09:25:29.536Z,70.70
2018-07-07T09:29:32.310Z,69.40
2018-07-07T09:33:35.153Z,71.00
2018-07-07T09:37:38.168Z,70.50
2018-07-07T09:41:40.957Z,73.30
2018-07-07T09:45:43.860Z,70.00
2018-07-07T09:49:46.758Z,72.10
2018-07-07T09:53:49.572Z,68.40
2018-07-07T09:57:52.449Z,68.60
2018-07-07T10:01:55.318Z,69.50
2018-07-07T10:05:58.196Z,68.90
2018-07-07T10:10:01.023Z,66.60
2018-07-07T10:14:03.927Z,68.80
2018-07-07T10:18:06.810Z,68.10
2018-07-07T10:22:09.639Z,67.80
2018-07-07T10:26:12.510Z,67.60
2018-07-07T10:30:15.379Z,66.30
2018-07-07T10:34:18.203Z,65.30
2018-07-07T10:38:21.135Z,64.80
2018-07-07T10:42:24.038Z,62.70
2018-07-07T10:46:26.870Z,59.00
2018-07-07T10:50:36.379Z,58.60
2018-07-07T10:54:40.078Z,54.80
2018-07-07T10:58:43.557Z,58.10
2018-07-07T11:02:46.348Z,58.30
2018-07-07T11:06:49.189Z,57.00
2018-07-07T11:10:52.065Z,53.90
2018-07-07T11:14:54.912Z,55.10
2018-07-07T11:18:57.792Z,54.90
2018-07-07T11:23:00.607Z,55.70
2018-07-07T11:27:03.501Z,55.80
2018-07-07T11:31:06.364Z,54.40
2018-07-07T11:35:09.302Z,55.80
2018-07-07T11:39:12.234Z,56.50
2018-07-07T11:43:15.098Z,55.50
2018-07-07T11:47:18.059Z,56.40
2018-07-07T11:51:20.896Z,57.90
2018-07-07T11:55:24.307Z,57.10
2018-07-07T11:59:27.121Z,57.60
2018-07-07T12:03:30.123Z,57.90
2018-07-07T12:07:32.988Z,56.30
2018-07-07T12:11:36.089Z,55.80
2018-07-07T12:15:38.999Z,56.20
2018-07-07T12:19:41.851Z,56.70
2018-07-07T12:23:44.716Z,56.10
2018-07-07T12:27:47.503Z,54.90
2018-07-07T12:31:51.248Z,55.50
2018-07-07T12:35:54.118Z,57.30
2018-07-07T12:39:56.896Z,55.80
2018-07-07T12:43:59.824Z,56.10
2018-07-07T12:48:02.712Z,57.40
2018-07-07T12:52:05.664Z,57.00
2018-07-07T12:56:08.501Z,58.10
2018-07-07T13:00:11.509Z,57.80
2018-07-07T13:04:14.745Z,57.70
2018-07-07T13:08:17.588Z,55.20
2018-07-07T13:12:20.509Z,55.80
2018-07-07T13:16:23.381Z,55.80
2018-07-07T13:20:26.280Z,57.10
2018-07-07T13:24:29.928Z,59.50
2018-07-07T13:28:32.793Z,58.90
2018-07-07T13:32:35.721Z,60.80
2018-07-07T13:36:38.619Z,58.80
2018-07-07T13:40:41.476Z,59.20
2018-07-07T13:44:44.400Z,58.70
2018-07-07T13:48:47.301Z,58.20
2018-07-07T13:52:50.206Z,59.50
2018-07-07T13:56:52.957Z,59.00
2018-07-07T14:00:56.762Z,58.90
2018-07-07T14:04:59.556Z,58.70
2018-07-07T14:13:05.231Z,58.10
2018-07-07T14:17:08.185Z,59.30
2018-07-07T14:21:11.025Z,57.80
2018-07-07T14:25:13.951Z,57.90
2018-07-07T14:29:16.806Z,58.80
2018-07-07T14:33:19.626Z,57.10
2018-07-07T14:41:25.316Z,57.50
2018-07-07T14:49:34.171Z,58.40
2018-07-07T14:53:37.149Z,57.60
2018-07-07T14:57:40.372Z,57.30
2018-07-07T15:01:43.359Z,57.80
2018-07-07T15:05:46.228Z,59.70
2018-07-07T15:13:52.083Z,58.10
2018-07-07T15:17:55.002Z,59.90
2018-07-07T15:21:57.976Z,60.50
2018-07-07T15:26:01.998Z,59.00
2018-07-07T15:30:06.289Z,59.30
2018-07-07T15:34:09.155Z,59.30
2018-07-07T15:38:12.079Z,60.30
2018-07-07T15:42:14.989Z,59.40
2018-07-07T15:46:17.872Z,59.10
2018-07-07T15:50:20.762Z,60.50
2018-07-07T15:54:23.724Z,60.70
2018-07-07T15:58:26.733Z,61.00
2018-07-07T16:02:29.581Z,60.40
2018-07-07T16:06:32.472Z,62.50
2018-07-07T16:10:35.259Z,64.10
2018-07-07T16:14:38.415Z,66.20
2018-07-07T16:18:41.262Z,66.80
2018-07-07T16:22:44.128Z,67.30
2018-07-07T16:26:47.088Z,68.00
2018-07-07T16:30:49.991Z,67.50
2018-07-07T16:34:52.963Z,69.50
2018-07-07T16:38:55.933Z,69.70
2018-07-07T16:43:00.175Z,70.30
2018-07-07T16:47:03.170Z,71.30
2018-07-07T16:51:06.281Z,71.70
2018-07-07T16:55:09.715Z,72.60
2018-07-07T16:59:13.403Z,73.40
2018-07-07T17:03:16.432Z,73.80
2018-07-07T17:07:19.467Z,73.00
2018-07-07T17:11:22.515Z,73.10
2018-07-07T17:15:25.560Z,73.20
2018-07-07T17:23:32.006Z,76.80
2018-07-07T17:27:35.011Z,77.60
2018-07-07T17:31:37.951Z,78.50
2018-07-07T17:35:41.024Z,80.00
2018-07-07T17:39:44.324Z,79.40
2018-07-07T17:43:48.937Z,79.90
2018-07-07T17:47:51.957Z,80.30
2018-07-07T17:51:54.928Z,82.40
2018-07-07T17:55:58.971Z,83.00
2018-07-07T18:00:01.976Z,83.20
2018-07-07T18:04:05.791Z,83.30
2018-07-07T18:08:08.653Z,82.10
2018-07-07T18:12:11.494Z,82.30
2018-07-07T18:16:14.452Z,82.90
2018-07-07T18:20:17.541Z,82.50
2018-07-07T18:24:20.366Z,83.00
2018-07-07T18:28:23.180Z,82.70
2018-07-07T18:32:26.059Z,82.60
2018-07-07T18:36:29.045Z,82.60
2018-07-07T18:40:31.975Z,82.10
2018-07-07T18:44:34.810Z,82.30
2018-07-07T18:48:37.635Z,83.00
2018-07-07T18:52:40.556Z,83.70
2018-07-07T18:56:43.403Z,84.30
2018-07-07T19:00:46.382Z,84.80
2018-07-07T19:04:49.251Z,86.20
2018-07-07T19:08:52.251Z,87.60
2018-07-07T19:12:56.266Z,88.70
2018-07-07T19:16:59.185Z,89.20
2018-07-07T19:21:07.832Z,89.90
2018-07-07T19:25:16.199Z,90.40
2018-07-07T19:29:20.160Z,90.10
2018-07-07T19:37:31.380Z,90.50
2018-07-07T19:41:34.349Z,90.90
2018-07-07T19:45:37.299Z,91.00
2018-07-07T19:49:40.655Z,91.60
2018-07-07T19:53:43.621Z,91.60
2018-07-07T19:57:46.396Z,92.10
2018-07-07T20:01:49.282Z,92.20
2018-07-07T20:05:52.131Z,92.20
2018-07-07T20:09:54.989Z,92.70
2018-07-07T20:13:57.863Z,93.00
2018-07-07T20:18:04.844Z,92.70
2018-07-07T20:22:07.826Z,93.10
2018-07-07T20:30:13.414Z,93.40
2018-07-07T20:38:19.679Z,93.40
2018-07-07T20:42:22.494Z,93.50
2018-07-07T20:46:25.526Z,93.60
2018-07-07T20:50:28.371Z,94.00
2018-07-07T20:54:31.300Z,93.90
2018-07-07T20:58:34.141Z,93.90
2018-07-07T21:02:37.046Z,94.30
2018-07-07T21:06:39.975Z,93.70
2018-07-07T21:10:42.833Z,93.80
2018-07-07T21:14:45.723Z,94.30
2018-07-07T21:18:48.597Z,94.30
2018-07-07T21:22:51.706Z,93.80
2018-07-07T21:26:54.995Z,93.90
2018-07-07T21:30:57.932Z,94.50
2018-07-07T21:35:00.855Z,95.00
2018-07-07T21:39:03.965Z,95.50
2018-07-07T21:43:06.879Z,95.00
2018-07-07T21:47:09.845Z,94.70
2018-07-07T21:51:12.785Z,95.00
2018-07-07T21:55:15.728Z,95.30
2018-07-07T21:59:18.564Z,95.70
2018-07-07T22:03:26.925Z,95.80
2018-07-07T22:07:35.298Z,96.90
2018-07-07T22:11:38.289Z,95.70
2018-07-07T22:15:41.203Z,95.50
2018-07-07T22:19:44.077Z,96.40
2018-07-07T22:27:49.706Z,96.60
2018-07-07T22:31:52.644Z,96.10
2018-07-07T22:36:01.188Z,96.10
2018-07-07T22:40:04.108Z,95.60
2018-07-07T22:44:06.946Z,96.20
2018-07-07T22:48:09.733Z,96.40
2018-07-07T22:52:12.687Z,96.70
2018-07-07T22:56:15.537Z,97.20
2018-07-07T23:00:18.509Z,97.80
2018-07-07T23:04:21.232Z,97.50
2018-07-07T23:08:24.087Z,97.60
2018-07-07T23:12:26.928Z,97.80
2018-07-07T23:16:30.467Z,98.30
2018-07-07T23:20:33.305Z,97.70
2018-07-07T23:24:36.600Z,98.00
2018-07-07T23:28:39.445Z,97.50
2018-07-07T23:32:42.338Z,97.30
2018-07-07T23:36:45.186Z,97.20
2018-07-07T23:40:48.104Z,97.00
2018-07-07T23:48:53.709Z,98.00
2018-07-07T23:52:56.581Z,97.50
2018-07-07T23:56:59.524Z,97.50
